Time;durP1;ratioP1;P1;durP2;ratioP2;P2;SDS_P1;SDS_P2;PMS_P1;PMS_P2;Temp;Humidity;BMP_temperature;BMP_pressure;BME280_temperature;BME280_humidity;BME280_pressure;Samples;Min_cycle;Max_cycle;Signal;HPM_P1;HPM_P2
2021/09/08 00:01:33;;;;;;;;;10.33;9.00;;;;;;;;5037407;28;45409;-83
2021/09/08 00:03:58;;;;;;;;;12.00;9.33;;;;;;;;5032130;28;45625;-81
2021/09/08 00:06:24;;;;;;;;;11.25;11.00;;;;;;;;5032245;28;45756;-80
2021/09/08 00:08:49;;;;;;;;;13.00;10.50;;;;;;;;5032668;28;45381;-83
2021/09/08 00:11:14;;;;;;;;;12.00;12.00;;;;;;;;5033638;28;45325;-81
2021/09/08 00:13:40;;;;;;;;;10.75;10.75;;;;;;;;5036935;28;45429;-82
2021/09/08 00:16:05;;;;;;;;;11.00;11.00;;;;;;;;5030524;28;45311;-82
2021/09/08 00:18:30;;;;;;;;;13.33;12.00;;;;;;;;5024527;28;46097;-81
2021/09/08 00:20:55;;;;;;;;;11.33;10.00;;;;;;;;5027754;28;45424;-82
2021/09/08 00:23:21;;;;;;;;;13.33;11.00;;;;;;;;5022693;28;45850;-81
2021/09/08 00:25:46;;;;;;;;;10.75;10.75;;;;;;;;5034675;28;46862;-81
2021/09/08 00:28:11;;;;;;;;;13.33;10.33;;;;;;;;5032993;28;45494;-82
2021/09/08 00:30:36;;;;;;;;;11.00;11.00;;;;;;;;5033353;28;45434;-82
2021/09/08 00:33:02;;;;;;;;;12.00;9.75;;;;;;;;5034186;28;45755;-82
2021/09/08 00:35:27;;;;;;;;;14.00;10.00;;;;;;;;5032360;28;45387;-81
2021/09/08 00:37:52;;;;;;;;;10.67;9.33;;;;;;;;5020761;28;45989;-82
2021/09/08 00:40:17;;;;;;;;;11.00;11.00;;;;;;;;5033580;28;45414;-82
2021/09/08 00:42:43;;;;;;;;;12.33;11.00;;;;;;;;5019997;28;45468;-80
2021/09/08 00:45:08;;;;;;;;;10.75;8.25;;;;;;;;5032496;28;45594;-82
2021/09/08 00:47:34;;;;;;;;;12.25;11.25;;;;;;;;5029501;28;45979;-82
2021/09/08 00:49:59;;;;;;;;;10.00;9.00;;;;;;;;5020621;28;46370;-82
2021/09/08 00:52:25;;;;;;;;;12.75;11.25;;;;;;;;5021141;28;45494;-81
2021/09/08 00:54:50;;;;;;;;;15.00;12.00;;;;;;;;5030542;28;45572;-80
2021/09/08 00:57:16;;;;;;;;;11.25;9.00;;;;;;;;5031325;28;45954;-78
2021/09/08 00:59:43;;;;;;;;;10.00;10.00;;;;;;;;5031431;28;45746;-82
2021/09/08 01:02:09;;;;;;;;;10.50;9.50;;;;;;;;5032532;28;45386;-83
2021/09/08 01:04:34;;;;;;;;;11.50;9.50;;;;;;;;5035217;28;45524;-82
2021/09/08 01:07:00;;;;;;;;;12.75;12.00;;;;;;;;5031823;28;46018;-82
2021/09/08 01:09:27;;;;;;;;;14.50;13.00;;;;;;;;5033331;28;45909;-81
2021/09/08 01:11:52;;;;;;;;;11.00;9.75;;;;;;;;5031221;28;45397;-82
2021/09/08 01:14:17;;;;;;;;;13.00;12.50;;;;;;;;5031763;28;45286;-83
2021/09/08 01:16:43;;;;;;;;;11.25;11.00;;;;;;;;5034876;28;45456;-82
2021/09/08 01:19:09;;;;;;;;;13.67;11.33;;;;;;;;5020360;28;46463;-82
2021/09/08 01:21:34;;;;;;;;;10.75;10.00;;;;;;;;5028321;28;45498;-82
2021/09/08 01:24:06;;;;;;;;;12.33;12.00;;;;;;;;5029516;28;45500;-81
2021/09/08 01:26:31;;;;;;;;;11.00;10.00;;;;;;;;5031821;28;46023;-82
2021/09/08 01:28:57;;;;;;;;;13.00;13.00;;;;;;;;5032804;28;45875;-82
2021/09/08 01:31:22;;;;;;;;;10.67;9.33;;;;;;;;5033049;28;45440;-82
2021/09/08 01:33:47;;;;;;;;;15.33;12.00;;;;;;;;5017145;28;45556;-82
2021/09/08 01:36:12;;;;;;;;;11.75;11.75;;;;;;;;5027589;28;46431;-83
2021/09/08 01:38:38;;;;;;;;;10.25;10.25;;;;;;;;5029662;28;45382;-82
2021/09/08 01:41:03;;;;;;;;;12.67;11.00;;;;;;;;5033096;28;45389;-82
2021/09/08 01:43:28;;;;;;;;;12.33;11.00;;;;;;;;5033373;28;45401;-83
2021/09/08 01:48:28;;;;;;;;;12.00;11.00;;;;;;;;4809520;22;46627;-82
2021/09/08 01:50:54;;;;;;;;;12.50;11.00;;;;;;;;5005097;28;45342;-82
2021/09/08 01:53:19;;;;;;;;;13.00;12.00;;;;;;;;5007506;28;45507;-81
2021/09/08 01:55:44;;;;;;;;;13.75;11.00;;;;;;;;5009597;28;46021;-83
2021/09/08 01:58:10;;;;;;;;;10.00;10.00;;;;;;;;5006705;28;45548;-83
2021/09/08 02:00:35;;;;;;;;;13.75;12.50;;;;;;;;5009020;28;46031;-83
2021/09/08 02:03:00;;;;;;;;;10.33;10.33;;;;;;;;5015420;28;45354;-83
2021/09/08 02:05:25;;;;;;;;;12.00;11.50;;;;;;;;5006805;28;45960;-83
2021/09/08 02:07:51;;;;;;;;;13.00;11.33;;;;;;;;5021355;28;45832;-81
2021/09/08 02:10:16;;;;;;;;;11.67;10.00;;;;;;;;5013035;28;45514;-83
2021/09/08 02:12:42;;;;;;;;;12.33;11.00;;;;;;;;5003914;28;45518;-82
2021/09/08 02:15:08;;;;;;;;;10.75;10.25;;;;;;;;5012149;28;45739;-83
2021/09/08 02:17:33;;;;;;;;;12.25;11.75;;;;;;;;5004578;28;46095;-83
2021/09/08 02:19:58;;;;;;;;;12.00;10.00;;;;;;;;5008704;28;45509;-83
2021/09/08 02:22:23;;;;;;;;;12.25;12.00;;;;;;;;5012940;28;45432;-83
2021/09/08 02:24:49;;;;;;;;;13.00;11.33;;;;;;;;5006859;28;48424;-83
2021/09/08 02:27:14;;;;;;;;;11.67;11.67;;;;;;;;5015112;28;45314;-83
2021/09/08 02:29:39;;;;;;;;;13.00;11.00;;;;;;;;5009645;28;45441;-83
2021/09/08 02:32:05;;;;;;;;;10.25;9.00;;;;;;;;5012871;28;45488;-83
2021/09/08 02:34:31;;;;;;;;;12.50;12.50;;;;;;;;5007635;28;48359;-83
2021/09/08 02:36:56;;;;;;;;;13.25;11.25;;;;;;;;5006838;28;45510;-83
2021/09/08 02:39:21;;;;;;;;;16.67;13.67;;;;;;;;5017829;28;45572;-83
2021/09/08 02:41:46;;;;;;;;;15.00;11.67;;;;;;;;5008557;28;45418;-83
2021/09/08 02:44:11;;;;;;;;;15.00;12.67;;;;;;;;5012522;28;46397;-83
2021/09/08 02:46:37;;;;;;;;;13.50;12.25;;;;;;;;5011799;28;45842;-83
2021/09/08 02:49:03;;;;;;;;;14.00;13.67;;;;;;;;5008476;28;45360;-83
2021/09/08 02:51:28;;;;;;;;;10.50;10.00;;;;;;;;5006424;28;45390;-83
2021/09/08 02:53:54;;;;;;;;;14.67;11.00;;;;;;;;4991251;28;45604;-83
2021/09/08 02:56:19;;;;;;;;;10.67;10.67;;;;;;;;5007922;28;45831;-83
2021/09/08 02:58:44;;;;;;;;;14.00;12.33;;;;;;;;5004400;28;45372;-83
2021/09/08 03:01:11;;;;;;;;;14.33;10.67;;;;;;;;5007382;28;45444;-83
2021/09/08 03:03:36;;;;;;;;;14.00;14.00;;;;;;;;5007461;28;45728;-83
2021/09/08 03:06:01;;;;;;;;;14.00;11.00;;;;;;;;4997745;28;45517;-82
2021/09/08 03:08:26;;;;;;;;;13.75;12.00;;;;;;;;5011575;28;45531;-83
2021/09/08 03:10:52;;;;;;;;;12.00;12.00;;;;;;;;5008211;28;45479;-83
2021/09/08 03:13:17;;;;;;;;;10.67;10.67;;;;;;;;5004645;28;46865;-83
2021/09/08 03:15:43;;;;;;;;;12.50;12.25;;;;;;;;5007169;28;45563;-82
2021/09/08 03:18:08;;;;;;;;;14.75;12.75;;;;;;;;5008015;28;45605;-83
2021/09/08 03:20:34;;;;;;;;;13.25;12.00;;;;;;;;5003860;28;45525;-83
2021/09/08 03:23:00;;;;;;;;;12.50;12.50;;;;;;;;5001982;28;45362;-83
2021/09/08 03:25:25;;;;;;;;;15.75;11.00;;;;;;;;5011790;28;45739;-83
2021/09/08 03:27:50;;;;;;;;;12.75;11.50;;;;;;;;5015083;28;45565;-83
2021/09/08 03:30:16;;;;;;;;;13.33;11.33;;;;;;;;5008918;28;45405;-83
2021/09/08 03:32:41;;;;;;;;;14.33;12.33;;;;;;;;5006146;28;46263;-82
2021/09/08 03:35:06;;;;;;;;;10.33;10.33;;;;;;;;5007287;28;45439;-83
2021/09/08 03:37:32;;;;;;;;;17.00;11.50;;;;;;;;5025338;28;45483;-83
2021/09/08 03:39:57;;;;;;;;;15.33;11.00;;;;;;;;5008315;28;45495;-83
2021/09/08 03:42:24;;;;;;;;;13.33;13.33;;;;;;;;5015540;28;46157;-82
2021/09/08 03:44:49;;;;;;;;;13.50;10.75;;;;;;;;5007189;28;45449;-83
2021/09/08 03:47:14;;;;;;;;;11.00;11.00;;;;;;;;5007402;28;45483;-82
2021/09/08 03:49:40;;;;;;;;;14.33;14.33;;;;;;;;5006147;28;46237;-82
2021/09/08 03:52:05;;;;;;;;;16.67;15.00;;;;;;;;5001956;28;46304;-82
2021/09/08 03:54:30;;;;;;;;;14.00;11.00;;;;;;;;5008867;28;45685;-82
2021/09/08 03:56:55;;;;;;;;;11.25;9.50;;;;;;;;5005804;28;45586;-82
2021/09/08 03:59:22;;;;;;;;;12.67;12.67;;;;;;;;5006900;28;45396;-82
2021/09/08 04:01:48;;;;;;;;;13.75;12.25;;;;;;;;5013229;28;47638;-83
2021/09/08 04:04:13;;;;;;;;;12.33;11.00;;;;;;;;5011152;28;45335;-83
2021/09/08 04:06:38;;;;;;;;;14.00;14.00;;;;;;;;5007013;28;45461;-82
2021/09/08 04:09:03;;;;;;;;;12.00;12.00;;;;;;;;5000487;28;45513;-83
2021/09/08 04:11:28;;;;;;;;;19.00;14.33;;;;;;;;5007730;28;45639;-83
2021/09/08 04:13:54;;;;;;;;;14.00;14.00;;;;;;;;5010627;28;45562;-83
2021/09/08 04:16:19;;;;;;;;;14.67;12.00;;;;;;;;5001437;28;45707;-83
2021/09/08 04:18:44;;;;;;;;;18.67;14.33;;;;;;;;4995544;28;45502;-82
2021/09/08 04:21:09;;;;;;;;;19.67;15.33;;;;;;;;5006080;28;47252;-83
2021/09/08 04:23:34;;;;;;;;;15.33;12.00;;;;;;;;5003978;28;45539;-83
2021/09/08 04:26:00;;;;;;;;;16.33;14.00;;;;;;;;5000694;28;45497;-83
2021/09/08 04:28:25;;;;;;;;;14.33;13.00;;;;;;;;5012873;28;45307;-83
2021/09/08 04:30:50;;;;;;;;;12.33;11.33;;;;;;;;5010452;28;46032;-83
2021/09/08 04:33:15;;;;;;;;;16.33;16.33;;;;;;;;5013299;28;45433;-83
2021/09/08 04:35:40;;;;;;;;;17.00;13.33;;;;;;;;5001424;28;45368;-82
2021/09/08 04:38:06;;;;;;;;;16.00;14.00;;;;;;;;5001535;28;45509;-82
2021/09/08 04:40:31;;;;;;;;;15.25;12.50;;;;;;;;5011300;28;45497;-82
2021/09/08 04:42:56;;;;;;;;;19.75;14.25;;;;;;;;5000990;28;45307;-82
2021/09/08 04:45:22;;;;;;;;;16.33;14.33;;;;;;;;5011307;28;45583;-83
2021/09/08 04:47:47;;;;;;;;;19.33;15.00;;;;;;;;5008598;28;45479;-83
2021/09/08 04:50:12;;;;;;;;;15.67;14.00;;;;;;;;5014668;28;45651;-83
2021/09/08 04:52:37;;;;;;;;;15.25;11.25;;;;;;;;5015520;28;45376;-83
2021/09/08 04:55:03;;;;;;;;;15.33;11.33;;;;;;;;5013801;28;45534;-83
2021/09/08 04:57:28;;;;;;;;;14.25;13.50;;;;;;;;5014865;28;45388;-83
2021/09/08 04:59:53;;;;;;;;;15.33;12.67;;;;;;;;5009740;28;45584;-83
2021/09/08 05:02:18;;;;;;;;;15.00;13.67;;;;;;;;5015679;28;45627;-83
2021/09/08 05:04:44;;;;;;;;;15.00;14.00;;;;;;;;5013831;28;45421;-82
2021/09/08 05:07:09;;;;;;;;;11.67;11.67;;;;;;;;5011725;28;45451;-81
2021/09/08 05:09:34;;;;;;;;;18.00;15.50;;;;;;;;5002088;28;46113;-82
2021/09/08 05:12:00;;;;;;;;;16.00;13.00;;;;;;;;5019745;28;45424;-83
2021/09/08 05:14:25;;;;;;;;;16.00;12.50;;;;;;;;5010779;28;45696;-83
2021/09/08 05:16:50;;;;;;;;;13.00;12.67;;;;;;;;5012924;28;45466;-83
2021/09/08 05:19:15;;;;;;;;;15.67;14.33;;;;;;;;5011948;28;45522;-83
2021/09/08 05:21:41;;;;;;;;;15.67;13.33;;;;;;;;5006903;28;45502;-83
2021/09/08 05:24:06;;;;;;;;;16.67;12.00;;;;;;;;5010241;28;45365;-82
2021/09/08 05:26:31;;;;;;;;;16.67;14.33;;;;;;;;5014548;28;45411;-83
2021/09/08 05:28:56;;;;;;;;;17.00;13.00;;;;;;;;5009864;28;48166;-83
2021/09/08 05:31:22;;;;;;;;;17.00;14.25;;;;;;;;5001119;28;45652;-83
2021/09/08 05:33:47;;;;;;;;;13.00;13.00;;;;;;;;5012491;28;45641;-83
2021/09/08 05:36:15;;;;;;;;;14.00;12.75;;;;;;;;5005985;28;45671;-83
2021/09/08 05:38:40;;;;;;;;;15.00;14.25;;;;;;;;5005267;28;46222;-83
2021/09/08 05:41:06;;;;;;;;;16.33;15.00;;;;;;;;5013334;28;45204;-83
2021/09/08 05:43:31;;;;;;;;;15.25;12.50;;;;;;;;5008263;28;45535;-83
2021/09/08 05:45:56;;;;;;;;;16.75;14.00;;;;;;;;5013182;28;45573;-83
2021/09/08 05:48:21;;;;;;;;;18.67;17.33;;;;;;;;5014631;28;45770;-83
2021/09/08 05:50:47;;;;;;;;;15.33;14.33;;;;;;;;5013932;28;45472;-83
2021/09/08 05:53:12;;;;;;;;;17.25;13.50;;;;;;;;5009972;28;45371;-84
2021/09/08 05:55:37;;;;;;;;;16.00;15.33;;;;;;;;4998074;28;45513;-84
2021/09/08 05:58:02;;;;;;;;;13.33;12.67;;;;;;;;5013418;28;45700;-84
2021/09/08 06:00:28;;;;;;;;;17.00;13.00;;;;;;;;5004794;28;45384;-84
2021/09/08 06:02:53;;;;;;;;;16.50;15.75;;;;;;;;5013698;28;45921;-85
2021/09/08 06:05:18;;;;;;;;;14.00;13.33;;;;;;;;5007762;28;45925;-85
2021/09/08 06:07:43;;;;;;;;;15.25;15.00;;;;;;;;5013001;28;45724;-84
2021/09/08 06:10:09;;;;;;;;;17.67;16.00;;;;;;;;5000890;28;45527;-89
2021/09/08 06:12:34;;;;;;;;;14.50;14.25;;;;;;;;5010642;28;45455;-83
2021/09/08 06:14:59;;;;;;;;;18.00;16.00;;;;;;;;5007483;28;45626;-84
2021/09/08 06:17:25;;;;;;;;;15.00;15.00;;;;;;;;5009002;28;45417;-81
2021/09/08 06:19:50;;;;;;;;;16.00;14.67;;;;;;;;5006377;28;45740;-84
2021/09/08 06:22:15;;;;;;;;;21.75;16.75;;;;;;;;5013520;28;45497;-87
2021/09/08 06:24:40;;;;;;;;;16.33;14.33;;;;;;;;5009128;28;45584;-84
2021/09/08 06:27:05;;;;;;;;;15.00;15.00;;;;;;;;5011598;28;46604;-85
2021/09/08 06:29:31;;;;;;;;;16.33;16.33;;;;;;;;5013736;28;45619;-84
2021/09/08 06:31:56;;;;;;;;;15.50;14.50;;;;;;;;5009743;28;45802;-84
2021/09/08 06:34:21;;;;;;;;;14.50;13.50;;;;;;;;5013233;28;45560;-83
2021/09/08 06:36:49;;;;;;;;;16.00;15.00;;;;;;;;5012081;28;45563;-83
2021/09/08 06:39:14;;;;;;;;;20.50;17.00;;;;;;;;5002171;28;45436;-84
2021/09/08 06:41:40;;;;;;;;;19.33;16.00;;;;;;;;5000883;28;45603;-84
2021/09/08 06:44:05;;;;;;;;;19.25;14.75;;;;;;;;5012813;28;45362;-84
2021/09/08 06:46:30;;;;;;;;;13.67;13.67;;;;;;;;5011440;28;48189;-85
2021/09/08 06:48:55;;;;;;;;;19.00;16.00;;;;;;;;5014467;28;45587;-82
2021/09/08 06:51:21;;;;;;;;;18.33;14.33;;;;;;;;5016377;28;45564;-81
2021/09/08 06:53:46;;;;;;;;;17.25;16.00;;;;;;;;5008360;28;45311;-87
2021/09/08 06:56:11;;;;;;;;;16.33;15.00;;;;;;;;5006362;28;47365;-82
2021/09/08 06:58:36;;;;;;;;;17.00;17.00;;;;;;;;5008665;28;45453;-83
2021/09/08 07:01:01;;;;;;;;;17.00;15.67;;;;;;;;5017710;28;45502;-81
2021/09/08 07:03:27;;;;;;;;;17.67;14.00;;;;;;;;5008114;28;45522;-80
2021/09/08 07:05:52;;;;;;;;;16.67;14.33;;;;;;;;5012945;28;46685;-81
2021/09/08 07:08:17;;;;;;;;;14.33;14.00;;;;;;;;5003648;28;45762;-81
2021/09/08 07:10:42;;;;;;;;;21.00;19.33;;;;;;;;4995770;28;45454;-81
2021/09/08 07:13:08;;;;;;;;;20.00;17.33;;;;;;;;5010900;28;45349;-82
2021/09/08 07:15:33;;;;;;;;;18.67;14.67;;;;;;;;5005958;28;46026;-82
2021/09/08 07:17:59;;;;;;;;;17.00;16.75;;;;;;;;5004134;28;45375;-84
2021/09/08 07:20:24;;;;;;;;;17.50;15.75;;;;;;;;5005837;28;45413;-82
2021/09/08 07:22:50;;;;;;;;;17.75;15.00;;;;;;;;5012404;28;45452;-83
2021/09/08 07:25:15;;;;;;;;;14.25;14.00;;;;;;;;5003254;28;46333;-81
2021/09/08 07:27:40;;;;;;;;;14.67;14.33;;;;;;;;5011598;28;45572;-81
2021/09/08 07:30:06;;;;;;;;;16.25;13.50;;;;;;;;5006476;28;45393;-81
2021/09/08 07:32:31;;;;;;;;;23.25;16.00;;;;;;;;5004755;28;45330;-81
2021/09/08 07:34:58;;;;;;;;;16.25;14.50;;;;;;;;5008745;28;45271;-81
2021/09/08 07:37:24;;;;;;;;;17.00;16.00;;;;;;;;5010145;28;49780;-81
2021/09/08 07:39:49;;;;;;;;;17.50;15.00;;;;;;;;4999283;28;46892;-81
2021/09/08 07:42:14;;;;;;;;;14.00;13.67;;;;;;;;5009988;28;45456;-82
2021/09/08 07:44:41;;;;;;;;;17.33;16.00;;;;;;;;5007771;28;46227;-82
2021/09/08 07:47:07;;;;;;;;;18.50;15.75;;;;;;;;5004975;28;45525;-82
2021/09/08 07:49:32;;;;;;;;;15.75;14.75;;;;;;;;5015613;28;45428;-78
2021/09/08 07:51:57;;;;;;;;;16.00;15.33;;;;;;;;5010102;28;45614;-78
2021/09/08 07:54:23;;;;;;;;;19.67;16.00;;;;;;;;5015656;28;46298;-78
2021/09/08 07:56:48;;;;;;;;;16.67;13.67;;;;;;;;5007066;28;45552;-78
2021/09/08 07:59:13;;;;;;;;;16.33;13.67;;;;;;;;5009521;28;45705;-78
2021/09/08 08:01:38;;;;;;;;;16.33;16.00;;;;;;;;5007671;28;45406;-78
2021/09/08 08:04:03;;;;;;;;;16.33;14.33;;;;;;;;5009355;28;46669;-78
2021/09/08 08:06:29;;;;;;;;;17.75;14.50;;;;;;;;5012979;28;45406;-78
2021/09/08 08:08:54;;;;;;;;;17.67;17.67;;;;;;;;5006296;28;45454;-77
2021/09/08 08:11:19;;;;;;;;;17.00;14.00;;;;;;;;5003123;28;45635;-77
2021/09/08 08:13:47;;;;;;;;;18.00;14.00;;;;;;;;5010798;28;47070;-78
2021/09/08 08:16:15;;;;;;;;;19.00;16.00;;;;;;;;5011676;28;45806;-78
2021/09/08 08:18:40;;;;;;;;;17.00;17.00;;;;;;;;5013827;28;45371;-77
2021/09/08 08:21:06;;;;;;;;;17.50;16.00;;;;;;;;5007772;28;45346;-78
2021/09/08 08:23:31;;;;;;;;;16.00;15.00;;;;;;;;5011457;28;46384;-78
2021/09/08 08:25:56;;;;;;;;;20.00;18.33;;;;;;;;5000419;28;45508;-78
2021/09/08 08:28:21;;;;;;;;;16.00;15.33;;;;;;;;5009136;28;45511;-78
2021/09/08 08:30:47;;;;;;;;;17.33;15.67;;;;;;;;5009565;28;45567;-78
2021/09/08 08:33:12;;;;;;;;;16.00;14.00;;;;;;;;5006988;28;51952;-78
2021/09/08 08:35:37;;;;;;;;;18.67;16.33;;;;;;;;5009067;28;45669;-78
2021/09/08 08:38:02;;;;;;;;;22.00;16.33;;;;;;;;5014587;28;45496;-79
2021/09/08 08:40:31;;;;;;;;;19.50;18.00;;;;;;;;5009274;28;45459;-78
2021/09/08 08:42:56;;;;;;;;;20.75;18.25;;;;;;;;5012687;28;46677;-78
2021/09/08 08:45:21;;;;;;;;;17.50;16.25;;;;;;;;5000970;28;45455;-79
2021/09/08 08:47:46;;;;;;;;;20.00;18.75;;;;;;;;5006715;28;45465;-78
2021/09/08 08:50:13;;;;;;;;;16.00;16.00;;;;;;;;5006892;28;45386;-78
2021/09/08 08:52:38;;;;;;;;;22.00;19.00;;;;;;;;5008863;28;48137;-82
2021/09/08 08:55:04;;;;;;;;;18.75;17.00;;;;;;;;5010814;28;45664;-82
2021/09/08 08:57:30;;;;;;;;;16.25;15.00;;;;;;;;5002469;28;45469;-77
2021/09/08 08:59:55;;;;;;;;;22.00;22.00;;;;;;;;5008889;28;45399;-77
2021/09/08 09:02:20;;;;;;;;;16.00;16.00;;;;;;;;5004414;28;47316;-77
2021/09/08 09:04:46;;;;;;;;;17.00;16.00;;;;;;;;5005759;28;45496;-75
2021/09/08 09:07:22;;;;;;;;;19.25;18.25;;;;;;;;5011892;28;45919;-77
2021/09/08 09:10:10;;;;;;;;;19.50;18.00;;;;;;;;5012527;28;46769;-77
2021/09/08 09:12:40;;;;;;;;;18.25;18.25;;;;;;;;5001167;28;45574;-77
2021/09/08 09:15:07;;;;;;;;;17.75;17.75;;;;;;;;5013580;28;45438;-77
2021/09/08 09:17:33;;;;;;;;;19.00;16.50;;;;;;;;5008677;28;48869;-78
2021/09/08 09:20:00;;;;;;;;;19.50;17.00;;;;;;;;5004919;28;45446;-75
2021/09/08 09:22:40;;;;;;;;;19.00;15.25;;;;;;;;4999965;28;46151;-76
2021/09/08 09:25:06;;;;;;;;;21.50;18.25;;;;;;;;5006191;28;45472;-75
2021/09/08 09:27:36;;;;;;;;;19.25;18.50;;;;;;;;5006135;28;45494;-75
2021/09/08 09:30:04;;;;;;;;;19.25;18.00;;;;;;;;5004890;28;45702;-76
2021/09/08 09:32:39;;;;;;;;;25.25;18.75;;;;;;;;5009134;28;47323;-76
2021/09/08 09:35:05;;;;;;;;;14.75;14.75;;;;;;;;5009390;28;45668;-77
2021/09/08 09:37:31;;;;;;;;;15.00;14.00;;;;;;;;5014102;28;45688;-76
2021/09/08 09:40:00;;;;;;;;;21.75;17.75;;;;;;;;5010138;28;45703;-76
2021/09/08 09:42:31;;;;;;;;;17.00;16.50;;;;;;;;5015778;28;46043;-76
2021/09/08 09:45:15;;;;;;;;;22.25;18.25;;;;;;;;5010898;28;45743;-75
2021/09/08 09:47:41;;;;;;;;;16.25;15.25;;;;;;;;5007789;28;45703;-76
2021/09/08 09:50:08;;;;;;;;;19.25;15.00;;;;;;;;5000196;28;45587;-76
2021/09/08 09:52:33;;;;;;;;;19.25;19.25;;;;;;;;4999714;28;45551;-77
2021/09/08 09:54:59;;;;;;;;;19.25;16.25;;;;;;;;4998195;28;45430;-77
2021/09/08 09:57:26;;;;;;;;;24.75;20.00;;;;;;;;5013191;28;45519;-76
2021/09/08 09:59:52;;;;;;;;;22.50;19.75;;;;;;;;5004423;28;45414;-78
2021/09/08 10:02:17;;;;;;;;;17.00;17.00;;;;;;;;5005094;28;47324;-75
2021/09/08 10:04:42;;;;;;;;;15.50;15.50;;;;;;;;5010119;28;45462;-76
2021/09/08 10:07:08;;;;;;;;;20.50;19.25;;;;;;;;5007885;28;46270;-75
2021/09/08 10:09:36;;;;;;;;;23.00;18.50;;;;;;;;5013030;28;45715;-76
2021/09/08 10:12:02;;;;;;;;;17.50;16.50;;;;;;;;5009505;28;46243;-75
2021/09/08 10:14:29;;;;;;;;;15.75;14.50;;;;;;;;5003541;28;45476;-76
2021/09/08 10:16:59;;;;;;;;;18.50;15.75;;;;;;;;5007372;28;45484;-75
2021/09/08 10:19:26;;;;;;;;;16.00;15.00;;;;;;;;5009466;28;45407;-76
2021/09/08 10:21:52;;;;;;;;;16.00;15.75;;;;;;;;5011349;28;45807;-76
2021/09/08 10:24:18;;;;;;;;;19.00;17.00;;;;;;;;5005412;28;46062;-75
2021/09/08 10:26:45;;;;;;;;;19.00;18.25;;;;;;;;5010904;28;45683;-75
2021/09/08 10:29:10;;;;;;;;;17.00;16.00;;;;;;;;5010466;28;45664;-76
2021/09/08 10:31:42;;;;;;;;;17.75;14.25;;;;;;;;5008481;28;45572;-76
2021/09/08 10:34:08;;;;;;;;;18.50;13.75;;;;;;;;5005391;28;45613;-75
2021/09/08 10:36:34;;;;;;;;;18.00;15.75;;;;;;;;5008670;28;45618;-75
2021/09/08 10:39:05;;;;;;;;;17.75;16.50;;;;;;;;5004784;28;45851;-76
2021/09/08 10:41:38;;;;;;;;;14.00;14.00;;;;;;;;4998706;28;45394;-76
2021/09/08 10:44:03;;;;;;;;;17.50;16.00;;;;;;;;5000936;28;52058;-76
2021/09/08 10:46:47;;;;;;;;;19.25;17.50;;;;;;;;5009321;28;45362;-75
2021/09/08 10:49:32;;;;;;;;;18.50;16.75;;;;;;;;5008760;28;45631;-76
2021/09/08 10:51:57;;;;;;;;;19.50;16.00;;;;;;;;5004741;28;46715;-76
2021/09/08 10:54:23;;;;;;;;;19.00;17.00;;;;;;;;5014259;28;45498;-76
2021/09/08 10:56:48;;;;;;;;;17.67;16.67;;;;;;;;5009349;28;45818;-76
2021/09/08 10:59:14;;;;;;;;;16.00;16.00;;;;;;;;5002714;28;45428;-76
2021/09/08 11:01:40;;;;;;;;;21.25;18.25;;;;;;;;5002216;28;46551;-76
2021/09/08 11:04:11;;;;;;;;;21.75;20.25;;;;;;;;5010963;28;45867;-76
2021/09/08 11:06:38;;;;;;;;;24.50;20.00;;;;;;;;5016467;28;45445;-76
2021/09/08 11:09:04;;;;;;;;;20.50;18.00;;;;;;;;5012178;28;47930;-76
2021/09/08 11:11:30;;;;;;;;;33.75;29.00;;;;;;;;5008684;28;45506;-76
2021/09/08 11:13:55;;;;;;;;;20.25;18.00;;;;;;;;5006376;28;45559;-75
2021/09/08 11:16:25;;;;;;;;;17.25;14.50;;;;;;;;5007605;28;45581;-76
2021/09/08 11:18:51;;;;;;;;;18.00;15.50;;;;;;;;5005262;28;45490;-76
2021/09/08 11:21:17;;;;;;;;;18.50;15.75;;;;;;;;5014524;28;45690;-77
2021/09/08 11:23:42;;;;;;;;;18.50;17.50;;;;;;;;5009035;28;45366;-75
2021/09/08 11:26:09;;;;;;;;;15.50;15.50;;;;;;;;5007173;28;45504;-74
2021/09/08 11:28:35;;;;;;;;;16.00;14.75;;;;;;;;5007771;28;45747;-77
2021/09/08 11:31:09;;;;;;;;;19.25;18.50;;;;;;;;5006318;28;45597;-76
2021/09/08 11:33:35;;;;;;;;;19.25;17.75;;;;;;;;5007728;28;45831;-76
2021/09/08 11:36:00;;;;;;;;;17.25;15.00;;;;;;;;5009907;28;45428;-77
2021/09/08 11:38:27;;;;;;;;;25.00;19.50;;;;;;;;5008309;28;45739;-77
2021/09/08 11:40:54;;;;;;;;;20.00;18.25;;;;;;;;5010262;28;46035;-75
2021/09/08 11:43:39;;;;;;;;;18.50;18.00;;;;;;;;5010698;28;45525;-76
2021/09/08 11:46:11;;;;;;;;;17.50;15.50;;;;;;;;4992431;28;45458;-73
2021/09/08 11:48:36;;;;;;;;;14.75;14.75;;;;;;;;5000615;28;45606;-77
2021/09/08 11:51:03;;;;;;;;;18.00;16.75;;;;;;;;5005326;28;45423;-77
2021/09/08 11:53:28;;;;;;;;;20.00;16.75;;;;;;;;5009640;28;45500;-77
2021/09/08 11:56:03;;;;;;;;;15.75;15.75;;;;;;;;5009798;28;45893;-80
2021/09/08 11:58:28;;;;;;;;;16.00;15.00;;;;;;;;5009505;28;45340;-76
2021/09/08 12:00:54;;;;;;;;;17.33;15.67;;;;;;;;5012266;28;45608;-77
2021/09/08 12:03:19;;;;;;;;;15.50;15.50;;;;;;;;5011919;28;46105;-77
2021/09/08 12:05:44;;;;;;;;;16.00;16.00;;;;;;;;5012394;28;45480;-77
2021/09/08 12:08:09;;;;;;;;;14.00;14.00;;;;;;;;5006228;28;45468;-77
2021/09/08 12:10:35;;;;;;;;;19.33;18.00;;;;;;;;5004155;28;46604;-76
2021/09/08 12:13:01;;;;;;;;;14.75;14.25;;;;;;;;5010497;28;46691;-76
2021/09/08 12:15:33;;;;;;;;;22.33;16.33;;;;;;;;5007954;28;45472;-76
2021/09/08 12:18:16;;;;;;;;;16.50;14.50;;;;;;;;5007153;28;45453;-76
2021/09/08 12:20:41;;;;;;;;;14.50;14.00;;;;;;;;5012519;28;45623;-78
2021/09/08 12:23:21;;;;;;;;;20.00;17.25;;;;;;;;5001194;28;45583;-77
2021/09/08 12:26:01;;;;;;;;;18.00;17.00;;;;;;;;5004878;28;45418;-77
2021/09/08 12:28:27;;;;;;;;;14.50;14.50;;;;;;;;5005988;28;45550;-76
2021/09/08 12:31:12;;;;;;;;;18.50;15.25;;;;;;;;5010809;28;45445;-76
2021/09/08 12:33:50;;;;;;;;;15.50;15.50;;;;;;;;5006929;28;45290;-77
2021/09/08 12:36:15;;;;;;;;;16.75;15.75;;;;;;;;5018930;28;45505;-77
2021/09/08 12:38:41;;;;;;;;;16.50;14.75;;;;;;;;5005841;28;45510;-78
2021/09/08 12:41:17;;;;;;;;;16.75;16.00;;;;;;;;5006056;28;47232;-75
2021/09/08 12:43:44;;;;;;;;;17.25;14.25;;;;;;;;5000243;28;45863;-79
2021/09/08 12:46:09;;;;;;;;;16.50;14.25;;;;;;;;5008125;28;45307;-80
2021/09/08 12:48:34;;;;;;;;;19.50;15.25;;;;;;;;5003910;28;45558;-79
2021/09/08 12:51:00;;;;;;;;;14.25;14.25;;;;;;;;5012715;28;45263;-85
2021/09/08 12:53:25;;;;;;;;;18.00;17.50;;;;;;;;5004099;28;46531;-81
2021/09/08 12:55:50;;;;;;;;;19.00;17.33;;;;;;;;4995888;28;45542;-76
2021/09/08 12:58:15;;;;;;;;;17.00;16.67;;;;;;;;5014316;28;45396;-77
2021/09/08 13:00:41;;;;;;;;;18.67;16.67;;;;;;;;5002326;28;46037;-77
2021/09/08 13:03:06;;;;;;;;;17.00;17.00;;;;;;;;5011130;28;45500;-76
2021/09/08 13:05:33;;;;;;;;;19.00;15.33;;;;;;;;5009702;28;45366;-77
2021/09/08 13:07:58;;;;;;;;;20.00;17.25;;;;;;;;5011033;28;45535;-77
2021/09/08 13:10:23;;;;;;;;;17.00;15.33;;;;;;;;5004805;28;46666;-78
2021/09/08 13:12:49;;;;;;;;;15.33;15.33;;;;;;;;5003095;28;46390;-78
2021/09/08 13:15:14;;;;;;;;;17.67;17.00;;;;;;;;5013291;28;46078;-78
2021/09/08 13:17:40;;;;;;;;;16.75;16.75;;;;;;;;5012202;28;45423;-79
2021/09/08 13:20:05;;;;;;;;;17.33;17.33;;;;;;;;5007243;28;45469;-76
2021/09/08 13:22:31;;;;;;;;;16.50;16.25;;;;;;;;5016148;28;45410;-76
2021/09/08 13:24:56;;;;;;;;;19.25;18.25;;;;;;;;5011761;28;45488;-76
2021/09/08 13:27:24;;;;;;;;;22.33;19.00;;;;;;;;5014320;28;45486;-75
2021/09/08 13:29:50;;;;;;;;;17.75;17.25;;;;;;;;5011022;28;45755;-76
2021/09/08 13:32:15;;;;;;;;;17.50;17.50;;;;;;;;5000859;28;45726;-76
2021/09/08 13:34:40;;;;;;;;;20.00;17.33;;;;;;;;5009263;28;46209;-75
2021/09/08 13:37:05;;;;;;;;;16.33;16.33;;;;;;;;5010934;28;45259;-75
2021/09/08 13:39:30;;;;;;;;;18.00;15.67;;;;;;;;5013267;28;48331;-75
2021/09/08 13:41:56;;;;;;;;;16.33;16.33;;;;;;;;5009921;28;45561;-75
2021/09/08 13:44:21;;;;;;;;;18.00;15.75;;;;;;;;5012256;28;45598;-75
2021/09/08 13:46:46;;;;;;;;;19.50;18.25;;;;;;;;5011038;28;45527;-76
2021/09/08 13:49:11;;;;;;;;;18.75;16.00;;;;;;;;5010855;28;46131;-75
2021/09/08 13:51:37;;;;;;;;;18.33;16.33;;;;;;;;5019196;28;45418;-75
2021/09/08 13:54:02;;;;;;;;;20.00;17.33;;;;;;;;5011709;28;45407;-76
2021/09/08 13:56:28;;;;;;;;;17.00;15.25;;;;;;;;5002408;28;45580;-75
2021/09/08 13:58:53;;;;;;;;;15.25;13.00;;;;;;;;5007648;28;45669;-75
2021/09/08 14:01:19;;;;;;;;;19.67;15.67;;;;;;;;5008885;28;45879;-75
2021/09/08 14:03:44;;;;;;;;;18.00;15.67;;;;;;;;5007184;28;45824;-75
2021/09/08 14:06:09;;;;;;;;;16.33;15.00;;;;;;;;5006989;28;45493;-75
2021/09/08 14:08:35;;;;;;;;;17.00;15.00;;;;;;;;5010175;28;45533;-75
2021/09/08 14:11:01;;;;;;;;;15.25;13.25;;;;;;;;5007336;28;46708;-75
2021/09/08 14:13:26;;;;;;;;;15.50;15.50;;;;;;;;5010815;28;45431;-76
2021/09/08 14:15:51;;;;;;;;;15.67;14.67;;;;;;;;5011765;28;45665;-75